Time;durP1;ratioP1;P1;durP2;ratioP2;P2;SDS_P1;SDS_P2;PMS_P1;PMS_P2;Temp;Humidity;BMP_temperature;BMP_pressure;BME280_temperature;BME280_humidity;BME280_pressure;Samples;Min_cycle;Max_cycle;Signal;HPM_P1;HPM_P2
2022/04/27 00:01:44;;;;;;;0.10;0.10;;;10.60;99.90;;;;;;5000268;28;20518;-70
2022/04/27 00:04:10;;;;;;;0.10;0.10;;;10.60;99.90;;;;;;4998022;28;20038;-70
2022/04/27 00:06:36;;;;;;;0.10;0.10;;;10.60;99.90;;;;;;5007116;28;20046;-70
2022/04/27 00:09:02;;;;;;;0.10;0.10;;;10.50;99.90;;;;;;5007947;28;20050;-70
2022/04/27 00:11:28;;;;;;;0.00;0.00;;;10.50;99.90;;;;;;5006413;28;20049;-70
2022/04/27 00:13:53;;;;;;;0.20;0.20;;;10.50;99.90;;;;;;5007316;28;20112;-70
2022/04/27 00:16:19;;;;;;;0.65;0.65;;;10.40;99.90;;;;;;5007128;28;20038;-70
2022/04/27 00:18:44;;;;;;;0.13;0.13;;;10.50;99.90;;;;;;4995541;28;20034;-70
2022/04/27 00:21:10;;;;;;;0.10;0.10;;;10.50;99.90;;;;;;5007430;28;20191;-70
2022/04/27 00:23:36;;;;;;;0.00;0.00;;;10.50;99.90;;;;;;5005309;28;20096;-70
2022/04/27 00:26:02;;;;;;;0.63;0.63;;;10.40;99.90;;;;;;5008822;28;20565;-70
2022/04/27 00:28:28;;;;;;;0.20;0.20;;;10.40;99.90;;;;;;5006728;28;20069;-70
2022/04/27 00:30:54;;;;;;;9.50;0.63;;;10.40;99.90;;;;;;5005347;28;20076;-70
2022/04/27 00:33:19;;;;;;;0.10;0.10;;;10.40;99.90;;;;;;5003973;28;20073;-70
2022/04/27 00:35:45;;;;;;;0.10;0.10;;;10.50;99.90;;;;;;5005131;28;20624;-70
2022/04/27 00:38:11;;;;;;;2.20;1.08;;;10.50;99.90;;;;;;5004784;28;20046;-70
2022/04/27 00:40:36;;;;;;;0.10;0.10;;;10.40;99.90;;;;;;4990404;28;20043;-70
2022/04/27 00:43:02;;;;;;;0.10;0.10;;;10.40;99.90;;;;;;4999522;28;20136;-71
2022/04/27 00:45:27;;;;;;;0.10;0.10;;;10.40;99.90;;;;;;5008490;28;20045;-70
2022/04/27 00:47:53;;;;;;;0.20;0.20;;;10.40;99.90;;;;;;5004888;28;20759;-70
2022/04/27 00:50:18;;;;;;;0.00;0.00;;;10.40;99.90;;;;;;4994957;28;20101;-71
2022/04/27 00:52:44;;;;;;;0.00;0.00;;;10.40;99.90;;;;;;4995215;28;20264;-70
2022/04/27 00:55:10;;;;;;;0.00;0.00;;;10.40;99.90;;;;;;5005508;28;20046;-70
2022/04/27 00:57:39;;;;;;;0.10;0.10;;;10.40;99.90;;;;;;4992444;28;20141;-70
2022/04/27 01:00:07;;;;;;;0.10;0.10;;;10.30;99.90;;;;;;5006696;28;20057;-70
2022/04/27 01:02:34;;;;;;;0.00;0.00;;;10.30;99.80;;;;;;5005825;28;20045;-70
2022/04/27 01:05:00;;;;;;;0.17;0.17;;;10.30;99.80;;;;;;5000271;28;20081;-70
2022/04/27 01:07:28;;;;;;;0.10;0.10;;;10.40;99.90;;;;;;4994339;28;20081;-69
2022/04/27 01:09:54;;;;;;;0.10;0.10;;;10.30;99.90;;;;;;5004167;28;20050;-71
2022/04/27 01:12:20;;;;;;;0.10;0.10;;;10.30;99.90;;;;;;5004038;28;20522;-70
2022/04/27 01:14:50;;;;;;;0.22;0.22;;;10.20;99.90;;;;;;5006640;28;20061;-71
2022/04/27 01:17:16;;;;;;;0.03;0.03;;;10.20;99.90;;;;;;5006286;28;20037;-70
2022/04/27 01:19:42;;;;;;;0.10;0.10;;;10.20;99.90;;;;;;5004955;28;20045;-70
2022/04/27 01:22:07;;;;;;;0.00;0.00;;;10.20;99.20;;;;;;4998841;28;20056;-70
2022/04/27 01:24:33;;;;;;;0.00;0.00;;;10.20;99.90;;;;;;5006759;28;20064;-70
2022/04/27 01:26:59;;;;;;;0.10;0.10;;;10.10;99.60;;;;;;5003831;28;20037;-70
2022/04/27 01:29:25;;;;;;;0.10;0.10;;;10.10;99.80;;;;;;5009893;28;20046;-71
2022/04/27 01:31:52;;;;;;;0.10;0.10;;;10.10;99.40;;;;;;5008418;28;20046;-71
2022/04/27 01:34:19;;;;;;;0.10;0.10;;;10.10;99.50;;;;;;5009669;28;20057;-70
2022/04/27 01:36:44;;;;;;;0.10;0.10;;;10.10;99.40;;;;;;5008717;28;20057;-71
2022/04/27 01:39:10;;;;;;;0.10;0.10;;;10.20;98.30;;;;;;5020565;28;20047;-70
2022/04/27 01:41:37;;;;;;;0.00;0.00;;;10.20;98.60;;;;;;5016309;28;20401;-70
2022/04/27 01:44:03;;;;;;;0.43;0.43;;;10.20;97.90;;;;;;5007301;28;20130;-70
2022/04/27 01:46:29;;;;;;;0.10;0.10;;;10.20;97.40;;;;;;5039334;28;20133;-70
2022/04/27 01:48:55;;;;;;;0.10;0.10;;;10.20;97.00;;;;;;5000519;28;20130;-70
2022/04/27 01:54:15;;;;;;;0.10;0.10;;;10.20;98.90;;;;;;5005815;28;20060;-70
2022/04/27 01:54:15;;;;;;;0.10;0.10;;;10.10;99.10;;;;;;4990259;28;20050;-70
2022/04/27 01:56:42;;;;;;;0.10;0.10;;;10.20;99.10;;;;;;4987363;28;20053;-70
2022/04/27 01:59:09;;;;;;;0.10;0.10;;;10.10;99.90;;;;;;5000920;28;20123;-69
2022/04/27 02:01:35;;;;;;;0.28;0.28;;;10.00;99.90;;;;;;5005947;28;20054;-68
2022/04/27 02:04:00;;;;;;;0.10;0.10;;;10.10;99.90;;;;;;4998482;28;20125;-67
2022/04/27 02:06:26;;;;;;;0.00;0.00;;;10.10;99.60;;;;;;5004690;28;20184;-68
2022/04/27 02:08:51;;;;;;;0.10;0.10;;;10.10;99.30;;;;;;5001150;28;20066;-67
2022/04/27 02:11:20;;;;;;;0.00;0.00;;;10.10;99.80;;;;;;5009667;28;20195;-68
2022/04/27 02:13:46;;;;;;;0.00;0.00;;;10.10;99.40;;;;;;5002313;28;20057;-68
2022/04/27 02:16:12;;;;;;;0.10;0.10;;;10.10;99.70;;;;;;4997767;28;20038;-68
2022/04/27 02:18:37;;;;;;;0.03;0.03;;;10.00;98.40;;;;;;4992317;28;20057;-68
2022/04/27 02:21:03;;;;;;;0.00;0.00;;;10.10;99.10;;;;;;5002559;28;20512;-68
2022/04/27 02:23:29;;;;;;;0.10;0.10;;;10.10;99.10;;;;;;4999650;28;20053;-68
2022/04/27 02:25:57;;;;;;;0.08;0.08;;;10.10;98.80;;;;;;4990160;28;20598;-67
2022/04/27 02:28:22;;;;;;;0.20;0.20;;;10.10;99.10;;;;;;4998498;28;20046;-68
2022/04/27 02:30:48;;;;;;;0.10;0.10;;;10.10;98.70;;;;;;4998388;28;20084;-68
2022/04/27 02:33:13;;;;;;;0.10;0.10;;;10.10;99.20;;;;;;5001203;28;20050;-68
2022/04/27 02:35:39;;;;;;;0.10;0.10;;;10.00;98.70;;;;;;4997396;28;20056;-68
2022/04/27 02:38:04;;;;;;;0.10;0.10;;;10.00;99.30;;;;;;5002712;28;20050;-68
2022/04/27 02:40:31;;;;;;;0.00;0.00;;;10.00;99.70;;;;;;4999409;28;20045;-69
2022/04/27 02:42:56;;;;;;;0.10;0.10;;;10.00;99.00;;;;;;5007105;28;20050;-69
2022/04/27 02:45:22;;;;;;;0.00;0.00;;;10.00;99.10;;;;;;5003514;28;20064;-69
2022/04/27 02:47:47;;;;;;;0.10;0.10;;;10.00;99.90;;;;;;5002607;28;20409;-69
2022/04/27 02:52:57;;;;;;;0.00;0.00;;;10.00;99.20;;;;;;5007064;28;20050;-69
2022/04/27 02:55:22;;;;;;;0.00;0.00;;;10.00;98.70;;;;;;5005316;28;20053;-69
2022/04/27 02:57:48;;;;;;;0.00;0.00;;;10.10;98.60;;;;;;5007803;28;20054;-69
2022/04/27 03:00:14;;;;;;;0.10;0.10;;;10.00;99.90;;;;;;4998991;28;20127;-69
2022/04/27 03:02:40;;;;;;;0.10;0.10;;;10.00;99.90;;;;;;5006949;28;20046;-70
2022/04/27 03:05:06;;;;;;;0.20;0.20;;;9.90;99.90;;;;;;5006363;28;20496;-69
2022/04/27 03:07:31;;;;;;;0.20;0.20;;;10.00;99.50;;;;;;5011727;28;20041;-69
2022/04/27 03:09:57;;;;;;;0.00;0.00;;;10.10;99.20;;;;;;4998283;28;20054;-69
2022/04/27 03:12:23;;;;;;;0.10;0.10;;;10.10;99.60;;;;;;4990564;28;20058;-69
2022/04/27 03:14:48;;;;;;;0.10;0.10;;;10.00;99.20;;;;;;5005899;28;20644;-69
2022/04/27 03:17:14;;;;;;;0.10;0.10;;;10.00;99.10;;;;;;5009935;28;20415;-69
2022/04/27 03:19:39;;;;;;;0.00;0.00;;;10.00;99.50;;;;;;5005948;28;20041;-69
2022/04/27 03:22:05;;;;;;;0.10;0.10;;;9.90;99.10;;;;;;5002316;28;20035;-69
2022/04/27 03:24:31;;;;;;;0.10;0.10;;;10.00;99.30;;;;;;5008203;28;20485;-69
2022/04/27 03:26:56;;;;;;;1.65;0.40;;;10.00;99.50;;;;;;5007317;28;20085;-69
2022/04/27 03:29:22;;;;;;;3.72;1.35;;;9.90;99.60;;;;;;5006596;28;20042;-69
2022/04/27 03:31:47;;;;;;;0.00;0.00;;;10.00;99.60;;;;;;5008412;28;20050;-69
2022/04/27 03:34:13;;;;;;;0.10;0.10;;;10.00;98.70;;;;;;4996190;28;20537;-69
2022/04/27 03:36:38;;;;;;;0.10;0.10;;;10.00;99.90;;;;;;5005472;28;20057;-69
2022/04/27 03:39:04;;;;;;;0.10;0.10;;;9.90;99.90;;;;;;5000593;28;20038;-69
2022/04/27 03:41:30;;;;;;;0.00;0.00;;;9.80;99.70;;;;;;4993352;28;20049;-69
2022/04/27 03:43:55;;;;;;;0.10;0.10;;;9.90;99.60;;;;;;5006564;28;20481;-69
2022/04/27 03:46:21;;;;;;;0.00;0.00;;;9.80;99.90;;;;;;5008037;28;20096;-69
2022/04/27 03:48:47;;;;;;;0.10;0.10;;;9.90;99.90;;;;;;5006680;28;20378;-69
2022/04/27 03:51:13;;;;;;;0.10;0.10;;;9.90;99.90;;;;;;5009019;28;20707;-69
2022/04/27 03:53:39;;;;;;;0.10;0.10;;;9.90;99.90;;;;;;4998786;28;20568;-69
2022/04/27 03:56:05;;;;;;;0.00;0.00;;;9.90;99.90;;;;;;4989492;28;20089;-69
2022/04/27 03:58:32;;;;;;;0.22;0.22;;;9.90;99.90;;;;;;5005180;28;20078;-69
2022/04/27 04:00:58;;;;;;;0.03;0.03;;;9.90;99.70;;;;;;5006356;28;20045;-69
2022/04/27 04:03:23;;;;;;;0.22;0.22;;;10.00;99.90;;;;;;5006583;28;20041;-69
2022/04/27 04:05:49;;;;;;;0.10;0.10;;;10.00;99.70;;;;;;5009148;28;20057;-69
2022/04/27 04:08:15;;;;;;;0.10;0.10;;;9.90;99.90;;;;;;4998395;28;20405;-69
2022/04/27 04:10:40;;;;;;;0.00;0.00;;;9.90;99.90;;;;;;4991014;28;20101;-70
2022/04/27 04:13:06;;;;;;;0.20;0.20;;;9.90;99.90;;;;;;4996186;28;20659;-69
2022/04/27 04:15:32;;;;;;;0.40;0.40;;;9.90;99.90;;;;;;5008477;28;20417;-69
2022/04/27 04:17:58;;;;;;;0.10;0.10;;;9.90;99.90;;;;;;5008198;28;20117;-69
2022/04/27 04:20:23;;;;;;;0.10;0.10;;;9.90;99.90;;;;;;5005164;28;20137;-69
2022/04/27 04:22:49;;;;;;;0.10;0.10;;;9.90;99.90;;;;;;5004227;28;20129;-69
2022/04/27 04:30:45;;;;;;;0.40;0.40;;;9.90;99.90;;;;;;5007493;28;20085;-69
2022/04/27 04:33:10;;;;;;;0.13;0.13;;;10.00;99.90;;;;;;5005989;28;20073;-69
2022/04/27 04:35:37;;;;;;;0.10;0.10;;;10.00;99.90;;;;;;5002959;28;20125;-69
2022/04/27 04:38:06;;;;;;;0.10;0.10;;;10.00;99.90;;;;;;5027125;28;20073;-70
2022/04/27 04:40:32;;;;;;;0.10;0.10;;;9.90;99.90;;;;;;5000754;28;20409;-69
2022/04/27 04:42:59;;;;;;;0.05;0.05;;;9.90;99.90;;;;;;4998458;28;20552;-69
2022/04/27 04:45:24;;;;;;;0.10;0.10;;;10.00;99.90;;;;;;5006344;28;20148;-69
2022/04/27 04:47:50;;;;;;;0.10;0.10;;;10.00;99.90;;;;;;5002898;28;20097;-69
2022/04/27 04:50:16;;;;;;;0.10;0.10;;;10.10;99.90;;;;;;5000317;28;20038;-70
2022/04/27 04:52:42;;;;;;;0.10;0.10;;;10.10;99.90;;;;;;4996176;28;20046;-69
2022/04/27 04:55:08;;;;;;;0.10;0.10;;;10.10;99.90;;;;;;5005966;28;20041;-68
2022/04/27 04:57:34;;;;;;;0.75;0.75;;;10.10;99.90;;;;;;5004803;28;20053;-68
2022/04/27 05:00:00;;;;;;;0.00;0.00;;;10.10;99.90;;;;;;4994893;28;20060;-69
2022/04/27 05:02:29;;;;;;;0.22;0.22;;;10.00;99.90;;;;;;5009041;28;20041;-68
2022/04/27 05:04:54;;;;;;;0.10;0.10;;;10.00;99.90;;;;;;5006963;28;20061;-68
2022/04/27 05:07:20;;;;;;;0.10;0.10;;;10.00;99.90;;;;;;5009451;28;20120;-69
2022/04/27 05:09:46;;;;;;;0.00;0.00;;;10.00;99.90;;;;;;5010628;28;20120;-69
2022/04/27 05:12:11;;;;;;;0.20;0.20;;;10.00;99.90;;;;;;5008370;28;20044;-68
2022/04/27 05:14:37;;;;;;;0.20;0.20;;;10.00;99.90;;;;;;5010079;28;20088;-68
2022/04/27 05:17:03;;;;;;;0.20;0.20;;;10.00;99.90;;;;;;5000026;28;20052;-69
2022/04/27 05:19:28;;;;;;;0.10;0.10;;;10.00;99.90;;;;;;5039868;28;20042;-68
2022/04/27 05:21:54;;;;;;;0.10;0.10;;;10.00;99.90;;;;;;5010382;28;20038;-68
2022/04/27 05:24:19;;;;;;;4.28;1.80;;;10.00;99.90;;;;;;5000574;28;20121;-68
2022/04/27 05:26:45;;;;;;;0.20;0.20;;;10.00;99.90;;;;;;5011413;28;20397;-68
2022/04/27 05:31:54;;;;;;;0.00;0.00;;;10.00;99.90;;;;;;5010192;28;20049;-68
2022/04/27 05:34:24;;;;;;;0.00;0.00;;;10.00;99.90;;;;;;5009663;28;20042;-69
2022/04/27 05:36:50;;;;;;;0.00;0.00;;;10.00;99.90;;;;;;5013142;28;20049;-69
2022/04/27 05:39:21;;;;;;;0.65;0.65;;;10.00;99.90;;;;;;5013713;28;20038;-69
2022/04/27 05:41:49;;;;;;;0.00;0.00;;;10.00;99.90;;;;;;4999590;28;20151;-69
2022/04/27 05:44:16;;;;;;;0.10;0.10;;;10.00;99.90;;;;;;4992598;28;20478;-69
2022/04/27 05:46:42;;;;;;;0.00;0.00;;;10.10;99.90;;;;;;5008669;28;20037;-69
2022/04/27 05:49:07;;;;;;;0.10;0.10;;;10.00;99.90;;;;;;5010750;28;20125;-69
2022/04/27 05:51:33;;;;;;;0.00;0.00;;;10.10;99.90;;;;;;5009918;28;20046;-69
2022/04/27 05:53:58;;;;;;;0.03;0.03;;;10.00;99.90;;;;;;4998861;28;20112;-69
2022/04/27 05:56:24;;;;;;;0.10;0.10;;;10.10;99.90;;;;;;5009180;28;20057;-68
2022/04/27 05:58:50;;;;;;;0.17;0.17;;;10.10;99.90;;;;;;5006048;28;20121;-69
2022/04/27 06:01:16;;;;;;;0.08;0.08;;;10.10;99.90;;;;;;5001055;28;20553;-68
2022/04/27 06:03:42;;;;;;;0.10;0.10;;;10.10;99.90;;;;;;5008765;28;20088;-69
2022/04/27 06:06:07;;;;;;;0.10;0.10;;;10.10;99.90;;;;;;5008840;28;20537;-68
2022/04/27 06:08:33;;;;;;;0.40;0.40;;;10.10;99.90;;;;;;5004598;28;20089;-68
2022/04/27 06:10:58;;;;;;;0.08;0.08;;;10.10;99.90;;;;;;4994507;28;20490;-69
2022/04/27 06:13:24;;;;;;;3.72;0.73;;;10.00;99.90;;;;;;5033241;28;20041;-68
2022/04/27 06:15:50;;;;;;;0.40;0.40;;;10.00;99.90;;;;;;4996772;28;20049;-68
2022/04/27 06:18:16;;;;;;;0.00;0.00;;;10.00;99.90;;;;;;5006858;28;20374;-68
2022/04/27 06:20:42;;;;;;;0.00;0.00;;;10.00;99.90;;;;;;5001316;28;20101;-68
2022/04/27 06:23:09;;;;;;;0.05;0.05;;;10.10;99.90;;;;;;5006712;28;20034;-69
2022/04/27 06:25:35;;;;;;;0.10;0.10;;;10.10;99.90;;;;;;5008664;28;20046;-69
2022/04/27 06:28:02;;;;;;;0.10;0.10;;;10.10;99.90;;;;;;5004615;28;20050;-69
2022/04/27 06:30:28;;;;;;;0.17;0.17;;;10.00;99.90;;;;;;5010864;28;20046;-69
2022/04/27 06:32:53;;;;;;;0.10;0.10;;;10.10;99.90;;;;;;5009749;28;20133;-69
2022/04/27 06:35:19;;;;;;;0.20;0.20;;;10.10;99.90;;;;;;5001596;28;20053;-69
2022/04/27 06:37:45;;;;;;;0.00;0.00;;;10.10;99.90;;;;;;5008260;28;20041;-70
2022/04/27 06:40:11;;;;;;;0.10;0.10;;;10.20;99.90;;;;;;5008985;28;20042;-69
2022/04/27 06:42:42;;;;;;;0.38;0.38;;;10.20;99.90;;;;;;5009311;28;20188;-69
2022/04/27 06:45:08;;;;;;;0.10;0.10;;;10.20;99.90;;;;;;5009603;28;20521;-69
2022/04/27 06:47:33;;;;;;;0.10;0.10;;;10.20;99.90;;;;;;5009263;28;20062;-69
2022/04/27 06:49:59;;;;;;;0.63;0.63;;;10.30;99.90;;;;;;5007175;28;20049;-69
2022/04/27 06:52:24;;;;;;;0.00;0.00;;;10.30;99.90;;;;;;5008320;28;20125;-69
2022/04/27 06:54:50;;;;;;;0.10;0.10;;;10.20;99.90;;;;;;5010367;28;20075;-69
2022/04/27 06:57:15;;;;;;;0.98;0.98;;;10.30;99.90;;;;;;5008455;28;20058;-69
2022/04/27 06:59:41;;;;;;;0.35;0.20;;;10.30;99.90;;;;;;5008151;28;20125;-69
2022/04/27 07:02:09;;;;;;;0.15;0.15;;;10.30;99.90;;;;;;5009885;28;20525;-69
2022/04/27 07:04:35;;;;;;;0.10;0.10;;;10.30;99.90;;;;;;5007578;28;20513;-68
2022/04/27 07:07:02;;;;;;;0.00;0.00;;;10.30;99.90;;;;;;5009060;28;20045;-69
2022/04/27 07:09:29;;;;;;;0.22;0.22;;;10.30;99.90;;;;;;5009735;28;20490;-69
2022/04/27 07:11:55;;;;;;;0.10;0.10;;;10.40;99.90;;;;;;5009308;28;20061;-70
2022/04/27 07:14:21;;;;;;;0.00;0.00;;;10.40;99.90;;;;;;5006686;28;20054;-69
2022/04/27 07:16:46;;;;;;;0.00;0.00;;;10.50;99.90;;;;;;5007741;28;20040;-70
2022/04/27 07:19:12;;;;;;;1.10;1.10;;;10.50;99.90;;;;;;5006982;28;20038;-70
2022/04/27 07:21:41;;;;;;;0.10;0.10;;;10.50;99.90;;;;;;5004887;28;20046;-70
2022/04/27 07:24:07;;;;;;;0.00;0.00;;;10.50;99.90;;;;;;5006580;28;20103;-69
2022/04/27 07:26:33;;;;;;;0.00;0.00;;;10.50;99.90;;;;;;5008112;28;20049;-70
2022/04/27 07:28:59;;;;;;;0.10;0.10;;;10.60;99.90;;;;;;5006207;28;20054;-70
2022/04/27 07:31:26;;;;;;;0.20;0.20;;;10.70;99.90;;;;;;5016727;28;20033;-70
2022/04/27 07:33:52;;;;;;;0.10;0.10;;;10.70;99.90;;;;;;5006679;28;20084;-70
2022/04/27 07:36:18;;;;;;;0.10;0.10;;;10.60;99.90;;;;;;5009686;28;20033;-70
2022/04/27 07:38:44;;;;;;;0.10;0.10;;;10.70;99.90;;;;;;5021627;28;20095;-69
2022/04/27 07:41:10;;;;;;;0.03;0.03;;;10.70;99.90;;;;;;5029679;28;20069;-69
2022/04/27 07:43:36;;;;;;;0.20;0.20;;;10.70;99.90;;;;;;5020143;28;20057;-69
2022/04/27 07:46:05;;;;;;;0.15;0.15;;;10.80;99.90;;;;;;5008632;28;20096;-69
2022/04/27 07:48:32;;;;;;;0.10;0.10;;;10.90;99.90;;;;;;5007472;28;20078;-69
2022/04/27 07:50:59;;;;;;;0.10;0.10;;;10.90;99.90;;;;;;5009149;28;20050;-69
2022/04/27 07:53:25;;;;;;;0.03;0.03;;;10.90;99.90;;;;;;5007639;28;20096;-69
2022/04/27 07:55:51;;;;;;;1.77;1.23;;;10.90;99.90;;;;;;5007510;28;20045;-69
2022/04/27 07:58:16;;;;;;;0.10;0.10;;;10.90;99.90;;;;;;5009013;28;20127;-69
2022/04/27 08:00:42;;;;;;;0.40;0.40;;;10.90;99.90;;;;;;5018358;28;20052;-69
2022/04/27 08:03:07;;;;;;;0.45;0.45;;;10.90;99.90;;;;;;5029163;28;20069;-69
2022/04/27 08:05:33;;;;;;;0.10;0.10;;;11.00;99.90;;;;;;5013081;28;20128;-69
2022/04/27 08:07:59;;;;;;;0.00;0.00;;;11.00;99.80;;;;;;5006355;28;20038;-69
2022/04/27 08:10:24;;;;;;;0.10;0.10;;;11.00;99.90;;;;;;5006963;28;20084;-69
2022/04/27 08:12:50;;;;;;;0.20;0.20;;;11.10;99.90;;;;;;5007998;28;20042;-69
2022/04/27 08:15:17;;;;;;;0.10;0.10;;;11.20;99.90;;;;;;5005551;28;20507;-69
2022/04/27 08:17:56;;;;;;;0.00;0.00;;;11.20;99.20;;;;;;5004244;28;20058;-70
2022/04/27 08:23:14;;;;;;;0.10;0.10;;;11.20;99.60;;;;;;5007256;28;20581;-69
2022/04/27 08:25:40;;;;;;;0.10;0.10;;;11.20;98.90;;;;;;5006277;28;20488;-70
2022/04/27 08:28:07;;;;;;;0.22;0.22;;;11.40;99.40;;;;;;5002944;28;20034;-70
2022/04/27 08:30:37;;;;;;;37.63;1.45;;;11.40;99.50;;;;;;5032883;28;20041;-69
2022/04/27 08:33:04;;;;;;;0.10;0.10;;;11.50;99.30;;;;;;5008072;28;20053;-69
2022/04/27 08:35:31;;;;;;;0.00;0.00;;;11.50;98.30;;;;;;4999256;28;20042;-69
2022/04/27 08:37:58;;;;;;;0.10;0.10;;;11.50;99.30;;;;;;5007306;28;20096;-69
2022/04/27 08:40:24;;;;;;;0.10;0.10;;;11.50;98.70;;;;;;5010292;28;20486;-69
2022/04/27 08:42:53;;;;;;;0.17;0.17;;;11.60;99.50;;;;;;5006159;28;20620;-69
2022/04/27 08:45:20;;;;;;;0.10;0.10;;;11.70;98.80;;;;;;4998890;28;20057;-69
2022/04/27 08:47:46;;;;;;;0.00;0.00;;;11.70;98.70;;;;;;5010372;28;20041;-69
2022/04/27 08:50:21;;;;;;;0.10;0.10;;;11.70;98.60;;;;;;5008986;28;20030;-69
2022/04/27 08:52:48;;;;;;;0.10;0.10;;;11.80;98.20;;;;;;5009206;28;20042;-69
2022/04/27 08:55:14;;;;;;;0.17;0.17;;;11.90;98.30;;;;;;5010423;28;20046;-69
2022/04/27 08:57:40;;;;;;;0.00;0.00;;;11.90;98.30;;;;;;5007098;28;20054;-69
2022/04/27 09:00:08;;;;;;;0.30;0.30;;;12.00;98.40;;;;;;5014342;28;20033;-69
2022/04/27 09:02:35;;;;;;;0.10;0.10;;;12.10;98.20;;;;;;5010970;28;20092;-69
2022/04/27 09:05:09;;;;;;;0.10;0.10;;;12.10;97.60;;;;;;5010344;28;20057;-69
2022/04/27 09:07:46;;;;;;;0.90;0.30;;;12.30;97.10;;;;;;5005428;28;20081;-69
2022/04/27 09:10:17;;;;;;;0.00;0.00;;;12.50;97.80;;;;;;5005318;28;20124;-69
2022/04/27 09:12:55;;;;;;;0.52;0.52;;;12.40;96.80;;;;;;5009758;28;20121;-69
2022/04/27 09:15:25;;;;;;;0.10;0.10;;;12.50;97.80;;;;;;5000337;28;20121;-68
2022/04/27 09:23:24;;;;;;;0.10;0.10;;;12.40;97.30;;;;;;5001905;28;20054;-67
2022/04/27 09:25:53;;;;;;;0.05;0.05;;;12.40;96.90;;;;;;5002144;28;20096;-67
2022/04/27 09:28:23;;;;;;;0.00;0.00;;;12.30;95.90;;;;;;4996232;28;20085;-67
2022/04/27 09:30:49;;;;;;;0.10;0.10;;;12.20;96.20;;;;;;4995178;28;20027;-67
2022/04/27 09:33:29;;;;;;;0.10;0.10;;;12.10;95.90;;;;;;4997604;28;20039;-67
2022/04/27 09:35:56;;;;;;;0.00;0.00;;;12.00;96.50;;;;;;4998486;28;20504;-66
2022/04/27 09:38:22;;;;;;;0.22;0.22;;;12.00;97.20;;;;;;4995711;28;20045;-67
2022/04/27 09:40:53;;;;;;;0.40;0.40;;;12.00;96.30;;;;;;5009788;28;20054;-67
2022/04/27 09:43:44;;;;;;;2.15;1.05;;;12.00;97.20;;;;;;4990302;28;20486;-69
2022/04/27 09:46:22;;;;;;;0.10;0.10;;;11.90;97.30;;;;;;5003391;28;20038;-70
2022/04/27 09:49:04;;;;;;;0.10;0.10;;;12.00;97.10;;;;;;5004301;28;20046;-69
2022/04/27 09:51:31;;;;;;;0.10;0.10;;;12.00;96.70;;;;;;5010602;28;20129;-69
2022/04/27 09:54:00;;;;;;;0.10;0.10;;;12.10;96.80;;;;;;5007900;28;20076;-70
2022/04/27 09:56:33;;;;;;;0.10;0.10;;;12.00;96.00;;;;;;5006127;28;20127;-70
2022/04/27 09:59:05;;;;;;;1.67;0.60;;;12.00;97.00;;;;;;5010423;28;20165;-71
2022/04/27 10:01:35;;;;;;;0.00;0.00;;;12.20;97.60;;;;;;5026263;28;20164;-70
2022/04/27 10:04:03;;;;;;;0.15;0.15;;;12.20;97.20;;;;;;5012934;28;20666;-70
2022/04/27 10:06:30;;;;;;;0.00;0.00;;;12.20;97.50;;;;;;5010353;28;20600;-70
2022/04/27 10:09:00;;;;;;;0.98;0.73;;;12.10;96.30;;;;;;5008316;28;20397;-70
2022/04/27 10:11:29;;;;;;;0.05;0.05;;;12.10;97.40;;;;;;5010784;28;20042;-71
2022/04/27 10:13:55;;;;;;;0.00;0.00;;;12.00;96.70;;;;;;5009315;28;20053;-70
2022/04/27 10:16:22;;;;;;;0.20;0.20;;;12.10;97.10;;;;;;5011790;28;20057;-71
2022/04/27 10:18:49;;;;;;;0.20;0.20;;;12.10;96.20;;;;;;5011539;28;20045;-70
2022/04/27 10:21:56;;;;;;;0.10;0.10;;;12.10;96.20;;;;;;5011758;28;20077;-71
2022/04/27 10:24:34;;;;;;;0.55;0.55;;;12.10;96.20;;;;;;5011782;28;20084;-70
2022/04/27 10:27:22;;;;;;;0.00;0.00;;;12.10;96.10;;;;;;5011943;28;20125;-71
2022/04/27 10:29:59;;;;;;;0.55;0.47;;;12.20;96.30;;;;;;5011811;28;20111;-70
2022/04/27 10:32:47;;;;;;;0.10;0.10;;;12.30;96.60;;;;;;5011522;28;20077;-70
2022/04/27 10:35:13;;;;;;;0.30;0.30;;;12.30;96.30;;;;;;5009762;28;20133;-70
2022/04/27 10:38:02;;;;;;;0.45;0.45;;;12.40;95.60;;;;;;5009889;28;20180;-70
2022/04/27 10:40:39;;;;;;;0.03;0.03;;;12.40;95.70;;;;;;5007511;28;20500;-70
2022/04/27 10:43:08;;;;;;;1.98;1.65;;;12.60;96.00;;;;;;5010156;28;20060;-70
2022/04/27 10:45:39;;;;;;;0.35;0.35;;;12.50;95.10;;;;;;5024609;28;20042;-70
2022/04/27 10:48:07;;;;;;;0.00;0.00;;;12.60;95.30;;;;;;5010272;28;20088;-71
2022/04/27 10:50:36;;;;;;;0.10;0.10;;;12.90;96.10;;;;;;5010143;28;20309;-71
2022/04/27 10:53:15;;;;;;;0.20;0.17;;;12.90;94.60;;;;;;5009712;28;20077;-70
2022/04/27 10:55:42;;;;;;;0.10;0.10;;;13.00;95.40;;;;;;5007074;28;20057;-71
2022/04/27 10:58:28;;;;;;;0.03;0.03;;;13.10;95.50;;;;;;5001737;28;20120;-71
2022/04/27 11:01:02;;;;;;;0.10;0.10;;;13.20;95.80;;;;;;5007888;28;20417;-71
2022/04/27 11:03:28;;;;;;;0.20;0.20;;;13.20;94.80;;;;;;5008937;28;20034;-71
2022/04/27 11:05:59;;;;;;;0.55;0.55;;;13.20;95.30;;;;;;5010388;28;20046;-71
2022/04/27 11:08:47;;;;;;;0.30;0.30;;;13.10;93.90;;;;;;5008334;28;20091;-71
2022/04/27 11:11:16;;;;;;;0.00;0.00;;;13.10;93.90;;;;;;5008782;28;20043;-70
2022/04/27 11:13:42;;;;;;;0.10;0.10;;;13.20;95.20;;;;;;5009609;28;20493;-71
2022/04/27 11:16:12;;;;;;;0.20;0.20;;;13.20;94.70;;;;;;5008752;28;20053;-71
2022/04/27 11:18:52;;;;;;;0.00;0.00;;;13.30;94.90;;;;;;5009596;28;20500;-71
2022/04/27 11:21:22;;;;;;;0.00;0.00;;;13.30;94.00;;;;;;5006315;28;20038;-71
2022/04/27 11:23:48;;;;;;;0.10;0.10;;;13.20;94.40;;;;;;5009318;28;20049;-71
2022/04/27 11:26:14;;;;;;;0.10;0.10;;;13.30;94.80;;;;;;5008574;28;20060;-71
2022/04/27 11:28:46;;;;;;;0.10;0.10;;;13.30;94.50;;;;;;5009188;28;20518;-71
2022/04/27 11:31:14;;;;;;;0.10;0.10;;;13.40;95.00;;;;;;5006860;28;20056;-71
2022/04/27 11:33:40;;;;;;;0.10;0.10;;;13.40;93.90;;;;;;5006421;28;20056;-71
2022/04/27 11:36:26;;;;;;;0.30;0.30;;;13.40;93.90;;;;;;5007779;28;20042;-70
2022/04/27 11:38:53;;;;;;;0.00;0.00;;;13.40;94.50;;;;;;5007134;28;20052;-71
2022/04/27 11:41:20;;;;;;;0.10;0.10;;;13.60;94.50;;;;;;5006898;28;20033;-70
2022/04/27 11:43:49;;;;;;;0.10;0.10;;;13.40;93.20;;;;;;5009179;28;20042;-71
2022/04/27 11:46:15;;;;;;;0.00;0.00;;;13.50;93.50;;;;;;5037512;28;20038;-70
2022/04/27 11:48:47;;;;;;;2.42;1.17;;;13.50;93.60;;;;;;5005791;28;20045;-71
2022/04/27 11:51:13;;;;;;;0.05;0.05;;;13.30;93.50;;;;;;5009259;28;20088;-71
2022/04/27 11:53:45;;;;;;;0.00;0.00;;;13.40;93.60;;;;;;5000427;28;20569;-71
2022/04/27 11:56:11;;;;;;;0.93;0.80;;;13.60;94.50;;;;;;4990117;28;20047;-70
2022/04/27 11:58:36;;;;;;;0.47;0.47;;;13.70;94.90;;;;;;5006583;28;20390;-71
2022/04/27 12:01:02;;;;;;;0.10;0.10;;;13.50;93.10;;;;;;5009045;28;20049;-71
2022/04/27 12:03:32;;;;;;;0.43;0.43;;;13.60;93.30;;;;;;5010383;28;20139;-71
2022/04/27 12:05:58;;;;;;;0.10;0.10;;;13.60;93.70;;;;;;5016467;28;20037;-71
2022/04/27 12:08:25;;;;;;;0.13;0.13;;;13.80;94.70;;;;;;5028559;28;20048;-71
2022/04/27 12:10:51;;;;;;;0.13;0.13;;;13.70;93.90;;;;;;5017953;28;20101;-71
2022/04/27 12:13:19;;;;;;;0.10;0.10;;;13.70;94.10;;;;;;5007937;28;20045;-71
2022/04/27 12:15:49;;;;;;;0.10;0.10;;;13.80;93.90;;;;;;5008907;28;20497;-71
2022/04/27 12:18:15;;;;;;;0.35;0.35;;;13.80;93.20;;;;;;5009316;28;20460;-71
2022/04/27 12:20:42;;;;;;;0.00;0.00;;;13.90;93.70;;;;;;5002632;28;20053;-70
2022/04/27 12:23:38;;;;;;;0.30;0.30;;;13.80;93.10;;;;;;5008482;28;20049;-71
2022/04/27 12:26:03;;;;;;;0.50;0.50;;;13.90;93.80;;;;;;5006579;28;20428;-71
2022/04/27 12:28:40;;;;;;;0.30;0.30;;;14.00;92.20;;;;;;5004366;28;20038;-71
2022/04/27 12:31:08;;;;;;;1.33;0.55;;;14.40;92.60;;;;;;5006814;28;20117;-71
2022/04/27 12:33:42;;;;;;;0.10;0.10;;;14.40;92.00;;;;;;5009289;28;20054;-71
2022/04/27 12:39:02;;;;;;;17.75;0.52;;;14.40;92.50;;;;;;5007999;28;20045;-71
2022/04/27 12:41:30;;;;;;;0.03;0.03;;;14.30;92.10;;;;;;5005392;28;20493;-71
2022/04/27 12:44:11;;;;;;;0.10;0.10;;;14.20;93.00;;;;;;5022947;28;20563;-71
2022/04/27 12:46:53;;;;;;;0.10;0.10;;;14.20;92.70;;;;;;5005176;28;20125;-71
2022/04/27 12:49:26;;;;;;;0.20;0.20;;;14.10;92.50;;;;;;5008204;28;20054;-71
2022/04/27 12:51:52;;;;;;;;;;;14.20;93.20;;;;;;5023215;28;20124;-71
2022/04/27 12:54:18;;;;;;;0.10;0.10;;;14.10;92.90;;;;;;5006823;28;20016;-70
2022/04/27 12:56:44;;;;;;;0.70;0.57;;;14.10;93.00;;;;;;5007532;28;20058;-70
2022/04/27 12:59:11;;;;;;;0.10;0.10;;;14.10;93.00;;;;;;5009049;28;20050;-71
2022/04/27 13:01:38;;;;;;;0.00;0.00;;;14.00;93.10;;;;;;5005847;28;20049;-71
2022/04/27 13:04:05;;;;;;;0.00;0.00;;;14.00;93.30;;;;;;5000076;28;20598;-70
2022/04/27 13:06:31;;;;;;;0.00;0.00;;;14.00;93.20;;;;;;4999422;28;20038;-71
2022/04/27 13:11:55;;;;;;;0.03;0.03;;;14.00;93.50;;;;;;4997429;28;20034;-70
2022/04/27 13:11:56;;;;;;;1.40;0.88;;;14.00;93.10;;;;;;5007172;28;20042;-71
2022/04/27 13:14:23;;;;;;;0.00;0.00;;;13.90;93.10;;;;;;5001077;28;20052;-71